Strona główna
METAR-TAF:

METAR-TAF

Lotnisko :

Koksijde, Belgia

Szerokość geograficzna: 51-05N, Długość geograficzna: 002-39E, wysokość: 4 m

Aktualna obserwacja pogody

Raport powstał 27 minut temu, godzina 05:55 UTC
Wiatr 6 kt od wschód
Temperatura 15°C
Wilgotność 72%
Ciśnienie 1021 hPa
Widzialność 10 km lub więcej

METAR: EBFN 010555Z AUTO 08006KT 9999 NCD 15/10 Q1021 BLU

czas: 08:22 (06:22 UTC)

Prognoza

Raport powstał 14 godziny i 41 minut temu, godzina 15:41 UTC
Prognoza ważna od 31 godzina 19 UTC do 01 godzina 07 UTC
Wiatr 15 kt od północno-północny wschód w porywach dochodzący do 25 kt
Widzialność 10 km lub więcej
Rozproszone chmury na wysokości 30000 ft
Stopniowe zmiany
od 31 godzina 21 UTC do 31 godzina 23 UTC
Wiatr 12 kt od wschodnio-północny wschód

TAF: EBFN 311541Z 3119/0107 03015G25KT 9999 SCT300 BECMG 3121/3123 07012KT

Obserwacja i prognoza pogody dla ponad 4000 lotnisk (raport METAR i TAF).

Dostępne stacje oznaczono żółtymi i czerwonymi punktami na mapie.

Najedź kursorem aby zobaczyć nazwę stacji.

Kliknij aby zobaczyć obserwacje i prognozy pogody.

Aby zmienić mapę: kliknij na zielony przycisk z czarnym krzyżykiem, aby powiększyć; na zielony przycisk z myślnikiem, aby pomniejszyć; na zielone strzałki, aby przejść do map sąsiednich.


METAR-TAF: